Time,TemperatureF,DewpointF,PressureIn,WindDirection,WindDirectionDegrees,WindSpeedMPH,WindSpeedGustMPH,Humidity,HourlyPrecipIn,Conditions,Clouds,dailyrainin,SoftwareType,DateUTC
2013-09-09 00:23:00,75.0,72.0,-100.00,SE,130,7.0,10.0,91,0.00,,,-99.99,,2013-09-09 05:23:00,
2013-09-09 00:43:00,74.0,72.0,-100.00,SSE,150,4.0,5.0,91,0.00,,,-99.99,,2013-09-09 05:43:00,
2013-09-09 01:21:00,74.0,71.0,-100.00,SSE,150,4.0,6.0,91,0.00,,,-99.99,,2013-09-09 06:21:00,
2013-09-09 01:42:00,73.0,71.0,-100.00,SSE,150,5.0,6.0,92,0.00,,,-99.99,,2013-09-09 06:42:00,
2013-09-09 02:22:00,72.0,70.0,-100.00,South,180,6.0,7.0,92,0.00,,,-99.99,,2013-09-09 07:22:00,
2013-09-09 02:43:00,72.0,70.0,-100.00,South,185,5.0,7.0,93,0.00,,,-99.99,,2013-09-09 07:43:00,
2013-09-09 04:22:00,73.0,67.0,-100.00,SSW,200,6.0,10.0,82,0.00,,,-99.99,,2013-09-09 09:22:00,
2013-09-09 04:43:00,73.0,67.0,-100.00,SSW,200,7.0,10.0,81,0.00,,,-99.99,,2013-09-09 09:43:00,
2013-09-09 05:23:00,72.0,66.0,-100.00,SW,215,7.0,10.0,81,0.00,,,-99.99,,2013-09-09 10:23:00,
2013-09-09 05:42:00,72.0,66.0,-100.00,SW,220,6.0,11.0,81,0.00,,,-99.99,,2013-09-09 10:42:00,
2013-09-09 06:22:00,72.0,66.0,-100.00,SSW,205,8.0,11.0,80,0.00,,,-99.99,,2013-09-09 11:22:00,
2013-09-09 06:42:00,72.0,65.0,-100.00,SSW,205,7.0,11.0,80,0.00,,,-99.99,,2013-09-09 11:42:00,
2013-09-09 07:22:00,72.0,64.0,-100.00,SSW,205,9.0,12.0,77,0.06,,,-99.99,,2013-09-09 12:22:00,
2013-09-09 07:42:00,72.0,64.0,-100.00,SSW,210,7.0,12.0,76,0.00,,,-99.99,,2013-09-09 12:42:00,
2013-09-09 08:21:00,75.0,64.0,-100.00,SSW,210,10.0,13.0,69,0.00,,,-99.99,,2013-09-09 13:21:00,
2013-09-09 08:42:00,76.0,64.0,-100.00,SW,215,9.0,15.0,65,0.00,,,-99.99,,2013-09-09 13:42:00,
2013-09-09 09:42:00,82.0,63.0,-100.00,SW,225,14.0,21.0,52,0.00,,,-99.99,,2013-09-09 14:42:00,
2013-09-09 10:22:00,85.0,62.0,-100.00,WSW,240,16.0,22.0,46,0.00,,,-99.99,,2013-09-09 15:22:00,
2013-09-09 11:24:00,88.0,63.0,-100.00,WSW,245,15.0,21.0,42,0.00,,,-99.99,,2013-09-09 16:24:00,
2013-09-09 11:43:00,90.0,63.0,-100.00,WSW,245,15.0,20.0,41,0.00,,,-99.99,,2013-09-09 16:43:00,
2013-09-09 12:23:00,93.0,64.0,-100.00,WSW,240,11.0,22.0,39,0.00,,,-99.99,,2013-09-09 17:23:00,
2013-09-09 12:43:00,92.0,64.0,-100.00,SW,220,14.0,22.0,38,0.00,,,-99.99,,2013-09-09 17:43:00,
2013-09-09 13:21:00,94.0,64.0,-100.00,SW,225,15.0,22.0,37,0.00,,,-99.99,,2013-09-09 18:21:00,
2013-09-09 13:42:00,94.0,63.0,-100.00,SW,230,20.0,27.0,36,0.00,,,-99.99,,2013-09-09 18:42:00,
2013-09-09 14:22:00,95.0,63.0,-100.00,WSW,245,16.0,23.0,34,0.00,,,-99.99,,2013-09-09 19:22:00,
2013-09-09 14:42:00,95.0,63.0,-100.00,SW,235,16.0,26.0,34,0.00,,,-99.99,,2013-09-09 19:42:00,
2013-09-09 15:12:00,96.0,62.0,-100.00,SW,230,17.0,24.0,33,0.00,,,-99.99,,2013-09-09 20:12:00,
2013-09-09 15:21:00,96.0,62.0,-100.00,WSW,240,21.0,29.0,32,0.00,,,-99.99,,2013-09-09 20:21:00,
2013-09-09 15:42:00,96.0,62.0,-100.00,SSW,205,22.0,32.0,32,0.00,,,-99.99,,2013-09-09 20:42:00,
2013-09-09 16:22:00,96.0,60.0,-100.00,SSW,205,23.0,31.0,31,0.00,,,-99.99,,2013-09-09 21:22:00,
2013-09-09 16:44:00,95.0,60.0,-100.00,SW,220,21.0,28.0,31,0.00,,,-99.99,,2013-09-09 21:44:00,
2013-09-09 17:24:00,94.0,61.0,-100.00,SW,215,18.0,31.0,33,0.00,,,-99.99,,2013-09-09 22:24:00,
2013-09-09 17:43:00,94.0,61.0,-100.00,SSW,195,18.0,27.0,34,0.00,,,-99.99,,2013-09-09 22:43:00,
2013-09-09 18:22:00,92.0,63.0,-100.00,SSW,205,19.0,24.0,37,0.00,,,-99.99,,2013-09-09 23:22:00,
2013-09-09 18:42:00,91.0,62.0,-100.00,SSW,210,12.0,25.0,37,0.00,,,-99.99,,2013-09-09 23:42:00,
2013-09-09 19:21:00,89.0,62.0,-100.00,SSW,200,11.0,16.0,41,0.00,,,-99.99,,2013-09-10 00:21:00,
2013-09-09 19:42:00,86.0,62.0,-100.00,SSW,195,11.0,16.0,45,0.00,,,-99.99,,2013-09-10 00:42:00,
2013-09-09 20:21:00,83.0,63.0,-100.00,SSW,205,11.0,16.0,50,0.00,,,-99.99,,2013-09-10 01:21:00,
2013-09-09 20:42:00,82.0,62.0,-100.00,SSW,200,9.0,12.0,51,0.00,,,-99.99,,2013-09-10 01:42:00,
2013-09-09 21:22:00,81.0,62.0,-100.00,SSW,200,12.0,15.0,52,0.00,,,-99.99,,2013-09-10 02:22:00,
2013-09-09 21:42:00,80.0,62.0,-100.00,SSW,200,9.0,13.0,53,0.00,,,-99.99,,2013-09-10 02:42:00,
2013-09-09 22:22:00,80.0,62.0,-100.00,SSW,205,10.0,14.0,55,0.00,,,-99.99,,2013-09-10 03:22:00,
2013-09-09 22:44:00,79.0,62.0,-100.00,SSW,195,11.0,15.0,55,0.00,,,-99.99,,2013-09-10 03:44:00,
2013-09-09 23:24:00,79.0,62.0,-100.00,SSW,200,10.0,16.0,54,0.00,,,-99.99,,2013-09-10 04:24:00,
2013-09-09 23:43:00,79.0,61.0,-100.00,SSW,200,12.0,15.0,54,0.00,,,-99.99,,2013-09-10 04:43:00,